createdAt,value
2023-05-19T00:01:15.110Z,12.73
2023-05-19T00:03:52.630Z,12.75
2023-05-19T00:06:25.071Z,12.73
2023-05-19T00:08:57.792Z,12.71
2023-05-19T00:11:26.470Z,12.66
2023-05-19T00:13:58.387Z,12.68
2023-05-19T00:16:26.468Z,12.72
2023-05-19T00:18:54.112Z,12.81
2023-05-19T00:21:21.243Z,12.82
2023-05-19T00:23:47.851Z,12.81
2023-05-19T00:26:15.575Z,12.79
2023-05-19T00:28:42.037Z,12.78
2023-05-19T00:31:08.462Z,12.82
2023-05-19T00:33:34.903Z,12.80
2023-05-19T00:36:05.690Z,12.73
2023-05-19T00:38:34.661Z,12.69
2023-05-19T00:41:02.270Z,12.71
2023-05-19T00:43:30.196Z,12.71
2023-05-19T00:45:57.464Z,12.72
2023-05-19T00:48:25.679Z,12.69
2023-05-19T00:50:54.725Z,12.57
2023-05-19T00:53:23.064Z,12.52
2023-05-19T00:55:50.442Z,12.51
2023-05-19T00:58:18.623Z,12.49
2023-05-19T01:00:45.774Z,12.48
2023-05-19T01:03:12.425Z,12.53
2023-05-19T01:05:41.638Z,12.52
2023-05-19T01:08:09.101Z,12.53
2023-05-19T01:10:35.880Z,12.55
2023-05-19T01:13:04.599Z,12.64
2023-05-19T01:15:37.727Z,12.66
2023-05-19T01:18:19.522Z,12.68
2023-05-19T01:20:59.273Z,12.64
2023-05-19T01:23:38.034Z,12.62
2023-05-19T01:26:28.807Z,12.57
2023-05-19T01:29:13.923Z,12.54
2023-05-19T01:31:42.616Z,12.53
2023-05-19T01:34:12.136Z,12.52
2023-05-19T01:36:41.246Z,12.52
2023-05-19T01:39:08.065Z,12.55
2023-05-19T01:41:35.012Z,12.55
2023-05-19T01:44:02.424Z,12.54
2023-05-19T01:46:28.956Z,12.56
2023-05-19T01:48:56.139Z,12.54
2023-05-19T01:51:22.620Z,12.50
2023-05-19T01:53:49.145Z,12.50
2023-05-19T01:56:22.107Z,12.47
2023-05-19T01:58:56.900Z,12.30
2023-05-19T02:01:46.490Z,12.21
2023-05-19T02:04:35.817Z,12.15
2023-05-19T02:07:12.384Z,12.06
2023-05-19T02:10:04.717Z,12.02
2023-05-19T02:12:40.744Z,11.95
2023-05-19T02:15:14.430Z,11.97
2023-05-19T02:17:47.652Z,11.89
2023-05-19T02:20:15.554Z,11.77
2023-05-19T02:22:42.067Z,11.70
2023-05-19T02:25:09.442Z,11.68
2023-05-19T02:27:36.854Z,11.70
2023-05-19T02:30:08.334Z,11.69
2023-05-19T02:32:36.341Z,11.69
2023-05-19T02:35:03.953Z,11.72
2023-05-19T02:37:31.130Z,11.75
2023-05-19T02:39:57.708Z,11.76
2023-05-19T02:42:24.248Z,11.75
2023-05-19T02:44:50.777Z,11.69
2023-05-19T02:47:17.223Z,11.61
2023-05-19T02:49:44.244Z,11.54
2023-05-19T02:52:12.023Z,11.54
2023-05-19T02:54:38.535Z,11.53
2023-05-19T02:57:05.377Z,11.52
2023-05-19T02:59:32.118Z,11.46
2023-05-19T03:02:02.282Z,11.39
2023-05-19T03:04:29.847Z,11.32
2023-05-19T03:06:57.340Z,11.30
2023-05-19T03:09:23.964Z,11.29
2023-05-19T03:11:50.413Z,11.26
2023-05-19T03:14:18.537Z,11.21
2023-05-19T03:16:45.212Z,11.16
2023-05-19T03:19:12.101Z,11.13
2023-05-19T03:21:38.503Z,11.16
2023-05-19T03:24:05.291Z,11.15
2023-05-19T03:26:31.677Z,11.11
2023-05-19T03:28:58.215Z,11.07
2023-05-19T03:31:24.716Z,11.09
2023-05-19T03:33:51.176Z,11.16
2023-05-19T03:36:17.863Z,11.21
2023-05-19T03:38:44.312Z,11.29
2023-05-19T03:41:10.717Z,11.30
2023-05-19T03:43:37.183Z,11.31
2023-05-19T03:46:03.823Z,11.33
2023-05-19T03:48:30.402Z,11.34
2023-05-19T03:50:57.901Z,11.35
2023-05-19T03:53:24.379Z,11.34
2023-05-19T03:55:50.994Z,11.36
2023-05-19T03:58:17.416Z,11.34
2023-05-19T04:00:43.890Z,11.35
2023-05-19T04:03:10.785Z,11.31
2023-05-19T04:05:37.421Z,11.32
2023-05-19T04:08:03.944Z,11.31
2023-05-19T04:10:30.957Z,11.27
2023-05-19T04:12:57.559Z,11.27
2023-05-19T04:15:24.350Z,11.24
2023-05-19T04:17:50.922Z,11.26
2023-05-19T04:20:17.471Z,11.22
2023-05-19T04:22:43.965Z,11.22
2023-05-19T04:25:10.452Z,11.22
2023-05-19T04:27:38.983Z,11.20
2023-05-19T04:30:06.488Z,11.19
2023-05-19T04:32:33.204Z,11.16
2023-05-19T04:34:59.902Z,11.13
2023-05-19T04:37:26.593Z,11.13
2023-05-19T04:39:54.233Z,11.12
2023-05-19T04:42:21.001Z,11.11
2023-05-19T04:44:49.423Z,11.17
2023-05-19T04:47:16.186Z,11.30
2023-05-19T04:49:42.978Z,11.37
2023-05-19T04:52:10.929Z,11.40
2023-05-19T04:54:38.889Z,11.44
2023-05-19T04:57:05.938Z,11.52
2023-05-19T04:59:33.040Z,11.51
2023-05-19T05:01:59.707Z,11.52
2023-05-19T05:04:26.215Z,11.58
2023-05-19T05:06:52.630Z,11.67
2023-05-19T05:09:19.997Z,11.75
2023-05-19T05:11:46.879Z,11.83
2023-05-19T05:14:13.683Z,11.85
2023-05-19T05:16:40.769Z,11.84
2023-05-19T05:19:07.616Z,11.86
2023-05-19T05:21:34.700Z,11.92
2023-05-19T05:24:01.462Z,12.04
2023-05-19T05:26:31.553Z,12.16
2023-05-19T05:28:58.064Z,12.17
2023-05-19T05:31:24.599Z,12.09
2023-05-19T05:33:51.162Z,12.12
2023-05-19T05:36:17.724Z,12.20
2023-05-19T05:38:44.255Z,12.29
2023-05-19T05:41:10.793Z,12.42
2023-05-19T05:43:37.226Z,12.62
2023-05-19T05:46:03.835Z,12.74
2023-05-19T05:48:30.603Z,12.85
2023-05-19T05:50:58.009Z,12.79
2023-05-19T05:53:26.657Z,12.77
2023-05-19T05:55:53.593Z,12.83
2023-05-19T05:58:22.305Z,12.93
2023-05-19T06:00:49.312Z,13.07
2023-05-19T06:03:16.903Z,13.18
2023-05-19T06:05:43.527Z,13.32
2023-05-19T06:08:10.036Z,13.45
2023-05-19T06:10:38.651Z,13.51
2023-05-19T06:13:05.248Z,13.69
2023-05-19T06:15:31.767Z,13.93
2023-05-19T06:17:58.925Z,14.16
2023-05-19T06:20:25.409Z,14.20
2023-05-19T06:22:53.058Z,14.26
2023-05-19T06:25:20.576Z,14.28
2023-05-19T06:27:47.146Z,14.40
2023-05-19T06:30:13.895Z,14.56
2023-05-19T06:32:40.617Z,14.60
2023-05-19T06:35:07.592Z,14.69
2023-05-19T06:37:34.019Z,14.75
2023-05-19T06:40:00.541Z,14.86
2023-05-19T06:42:27.030Z,14.91
2023-05-19T06:44:53.537Z,14.72
2023-05-19T06:47:21.874Z,14.66
2023-05-19T06:49:51.872Z,14.65
2023-05-19T06:52:20.059Z,14.81
2023-05-19T06:54:46.465Z,14.81
2023-05-19T06:57:12.957Z,14.74
2023-05-19T06:59:41.173Z,14.77
2023-05-19T07:02:08.139Z,15.08
2023-05-19T07:04:36.223Z,15.36
2023-05-19T07:07:03.246Z,15.39
2023-05-19T07:09:29.704Z,15.31
2023-05-19T07:11:56.448Z,15.18
2023-05-19T07:14:23.380Z,15.02
2023-05-19T07:16:49.942Z,14.89
2023-05-19T07:19:16.627Z,14.88
2023-05-19T07:21:43.427Z,14.90
2023-05-19T07:24:09.895Z,14.84
2023-05-19T07:26:36.397Z,14.86
2023-05-19T07:29:03.984Z,14.86
2023-05-19T07:31:30.617Z,14.85
2023-05-19T07:33:57.245Z,14.72
2023-05-19T07:36:23.804Z,14.66
2023-05-19T07:38:50.442Z,14.62
2023-05-19T07:41:16.961Z,14.69
2023-05-19T07:43:43.506Z,14.77
2023-05-19T07:46:10.049Z,14.88
2023-05-19T07:48:37.347Z,14.93
2023-05-19T07:51:03.976Z,14.98
2023-05-19T07:53:30.785Z,14.97
2023-05-19T07:55:58.681Z,15.01
2023-05-19T07:58:25.669Z,15.05
2023-05-19T08:00:53.299Z,15.04
2023-05-19T08:03:20.870Z,14.98
2023-05-19T08:05:47.650Z,14.94
2023-05-19T08:08:16.722Z,14.86
2023-05-19T08:10:44.545Z,14.78
2023-05-19T08:13:11.005Z,14.76
2023-05-19T08:15:37.799Z,14.72
2023-05-19T08:18:05.193Z,14.72
2023-05-19T08:20:32.690Z,14.78
2023-05-19T08:22:59.840Z,14.81
2023-05-19T08:25:26.272Z,14.83
2023-05-19T08:27:52.752Z,14.82
2023-05-19T08:30:19.495Z,14.87
2023-05-19T08:32:46.449Z,14.84
2023-05-19T08:35:12.967Z,14.89
2023-05-19T08:37:39.428Z,14.90
2023-05-19T08:40:07.148Z,14.94
2023-05-19T08:42:33.899Z,14.97
2023-05-19T08:45:01.616Z,14.93
2023-05-19T08:47:28.735Z,14.89
2023-05-19T08:50:07.783Z,14.94
2023-05-19T08:52:37.281Z,15.04
2023-05-19T08:55:17.081Z,15.10
2023-05-19T08:57:43.844Z,15.11
2023-05-19T09:00:12.285Z,15.19
2023-05-19T09:02:50.383Z,15.21
2023-05-19T09:05:26.448Z,15.18
2023-05-19T09:07:52.965Z,15.13
2023-05-19T09:10:19.666Z,15.18
2023-05-19T09:12:47.718Z,15.18
2023-05-19T09:15:18.767Z,15.12
2023-05-19T09:17:47.971Z,15.17
2023-05-19T09:20:16.772Z,15.15
2023-05-19T09:22:47.427Z,15.18
2023-05-19T09:25:23.969Z,15.18
2023-05-19T09:27:50.717Z,15.12
2023-05-19T09:30:19.213Z,15.04
2023-05-19T09:32:49.053Z,15.02
2023-05-19T09:35:21.194Z,15.03
2023-05-19T09:37:48.241Z,15.11
2023-05-19T09:40:15.794Z,15.13
2023-05-19T09:42:43.985Z,15.18
2023-05-19T09:45:13.198Z,15.29
2023-05-19T09:47:41.440Z,15.28
2023-05-19T09:50:10.255Z,15.42
2023-05-19T09:52:38.650Z,15.55
2023-05-19T09:55:08.830Z,15.62
2023-05-19T09:57:39.999Z,15.69
2023-05-19T10:00:17.861Z,15.81
2023-05-19T10:02:48.229Z,15.83
2023-05-19T10:05:20.479Z,15.80
2023-05-19T10:07:51.397Z,15.72
2023-05-19T10:10:20.754Z,15.60
2023-05-19T10:12:48.474Z,15.44
2023-05-19T10:15:29.509Z,15.39
2023-05-19T10:17:56.587Z,15.38
2023-05-19T10:20:23.206Z,15.39
2023-05-19T10:22:49.721Z,15.38
2023-05-19T10:25:18.611Z,15.38
2023-05-19T10:27:57.766Z,15.36
2023-05-19T10:30:32.336Z,15.41
2023-05-19T10:33:03.232Z,15.41
2023-05-19T10:35:57.669Z,15.43
2023-05-19T10:38:33.474Z,15.41
2023-05-19T10:41:12.930Z,15.50
2023-05-19T10:44:16.682Z,15.69
2023-05-19T10:46:43.319Z,15.78
2023-05-19T10:49:11.245Z,15.85
2023-05-19T10:51:37.864Z,15.96
2023-05-19T10:54:14.336Z,16.02
2023-05-19T10:56:47.162Z,15.96
2023-05-19T10:59:34.635Z,15.87
2023-05-19T11:02:05.426Z,15.73
2023-05-19T11:04:52.224Z,15.60
2023-05-19T11:07:21.531Z,15.53
2023-05-19T11:09:54.591Z,15.53
2023-05-19T11:12:24.754Z,15.53
2023-05-19T11:14:59.326Z,15.58
2023-05-19T11:17:27.432Z,15.72
2023-05-19T11:19:55.227Z,15.88
2023-05-19T11:22:28.230Z,15.95
2023-05-19T11:24:55.565Z,15.95
2023-05-19T11:27:38.170Z,15.90
2023-05-19T11:30:09.343Z,15.76
2023-05-19T11:32:39.677Z,15.60
2023-05-19T11:35:07.875Z,15.49
2023-05-19T11:37:34.948Z,15.45
2023-05-19T11:40:02.444Z,15.45
2023-05-19T11:42:29.000Z,15.49
2023-05-19T11:44:56.184Z,15.50
2023-05-19T11:47:22.820Z,15.46
2023-05-19T11:49:51.851Z,15.45
2023-05-19T11:52:22.122Z,15.49
2023-05-19T11:54:49.148Z,15.59
2023-05-19T11:57:15.788Z,15.68
2023-05-19T11:59:46.955Z,15.78
2023-05-19T12:02:16.421Z,15.89
2023-05-19T12:04:43.401Z,15.87
2023-05-19T12:07:12.143Z,15.97
2023-05-19T12:09:38.718Z,16.04
2023-05-19T12:12:05.740Z,16.08
2023-05-19T12:14:32.291Z,16.13
2023-05-19T12:16:59.382Z,16.17
2023-05-19T12:19:26.486Z,16.12
2023-05-19T12:21:53.956Z,16.06
2023-05-19T12:24:21.777Z,16.01
2023-05-19T12:26:50.212Z,15.95
2023-05-19T12:29:16.717Z,15.88
2023-05-19T12:31:46.758Z,15.81
2023-05-19T12:34:13.330Z,15.78
2023-05-19T12:36:43.115Z,15.73
2023-05-19T12:39:09.726Z,15.66
2023-05-19T12:41:36.185Z,15.60
2023-05-19T12:44:14.396Z,15.52
2023-05-19T12:46:40.906Z,15.48
2023-05-19T12:49:07.425Z,15.47
2023-05-19T12:51:34.029Z,15.48
2023-05-19T12:54:03.339Z,15.50
2023-05-19T12:56:29.824Z,15.52
2023-05-19T12:58:56.502Z,15.57
2023-05-19T13:01:24.109Z,15.57
2023-05-19T13:03:51.063Z,15.57
2023-05-19T13:06:17.883Z,15.59
2023-05-19T13:08:47.334Z,15.63
2023-05-19T13:11:13.919Z,15.69
2023-05-19T13:13:40.396Z,15.74
2023-05-19T13:16:07.029Z,15.69
2023-05-19T13:18:35.349Z,15.67
2023-05-19T13:21:01.833Z,15.63
2023-05-19T13:23:28.277Z,15.59
2023-05-19T13:25:54.830Z,15.55
2023-05-19T13:28:21.418Z,15.49
2023-05-19T13:30:49.510Z,15.44
2023-05-19T13:33:16.119Z,15.42
2023-05-19T13:35:42.649Z,15.39
2023-05-19T13:38:10.648Z,15.37
2023-05-19T13:40:38.114Z,15.37
2023-05-19T13:43:04.921Z,15.37
2023-05-19T13:45:31.507Z,15.38
2023-05-19T13:47:58.252Z,15.39
2023-05-19T13:50:24.847Z,15.42
2023-05-19T13:52:51.256Z,15.45
2023-05-19T13:55:17.933Z,15.53
2023-05-19T13:57:44.907Z,15.58
2023-05-19T14:00:11.754Z,15.74
2023-05-19T14:02:38.330Z,15.85
2023-05-19T14:05:06.126Z,15.99
2023-05-19T14:07:34.722Z,16.05
2023-05-19T14:10:02.574Z,16.13
2023-05-19T14:12:38.134Z,16.16
2023-05-19T14:15:14.134Z,16.18
2023-05-19T14:17:40.630Z,16.19
2023-05-19T14:20:07.745Z,16.22
2023-05-19T14:22:34.248Z,16.21
2023-05-19T14:25:01.688Z,16.21
2023-05-19T14:27:28.260Z,16.20
2023-05-19T14:29:54.716Z,16.18
2023-05-19T14:32:21.735Z,16.13
2023-05-19T14:34:48.333Z,16.05
2023-05-19T14:37:14.818Z,15.97
2023-05-19T14:39:41.403Z,15.91
2023-05-19T14:42:09.365Z,15.88
2023-05-19T14:44:37.501Z,15.90
2023-05-19T14:47:04.292Z,15.93
2023-05-19T14:49:30.810Z,15.95
2023-05-19T14:51:58.322Z,15.97
2023-05-19T14:54:24.899Z,16.02
2023-05-19T14:56:51.634Z,16.05
2023-05-19T14:59:18.091Z,16.01
2023-05-19T15:01:44.782Z,15.97
2023-05-19T15:04:11.533Z,15.96
2023-05-19T15:06:38.588Z,15.96
2023-05-19T15:09:05.455Z,15.95
2023-05-19T15:11:33.834Z,15.94
2023-05-19T15:14:02.827Z,15.99
2023-05-19T15:16:29.498Z,16.04
2023-05-19T15:18:56.162Z,16.09
2023-05-19T15:21:22.673Z,16.13
2023-05-19T15:23:49.185Z,16.14
2023-05-19T15:26:15.855Z,16.14
2023-05-19T15:28:42.468Z,16.17
2023-05-19T15:31:08.943Z,16.16
2023-05-19T15:33:38.499Z,16.23
2023-05-19T15:36:05.370Z,16.27
2023-05-19T15:38:35.825Z,16.31
2023-05-19T15:41:06.441Z,16.37
2023-05-19T15:43:33.087Z,16.41
2023-05-19T15:46:00.651Z,16.46
2023-05-19T15:48:28.908Z,16.49
2023-05-19T15:50:58.013Z,16.50
2023-05-19T15:53:25.107Z,16.49
2023-05-19T15:55:51.731Z,16.48
2023-05-19T15:58:18.408Z,16.42
2023-05-19T16:00:46.384Z,16.41
2023-05-19T16:03:12.985Z,16.38
2023-05-19T16:05:39.573Z,16.39
2023-05-19T16:08:08.510Z,16.40
2023-05-19T16:10:35.516Z,16.37
2023-05-19T16:13:03.236Z,16.34
2023-05-19T16:15:29.747Z,16.39
2023-05-19T16:17:56.834Z,16.37
2023-05-19T16:20:26.739Z,16.36
2023-05-19T16:22:53.415Z,16.42
2023-05-19T16:25:20.200Z,16.45
2023-05-19T16:27:46.751Z,16.49
2023-05-19T16:30:13.525Z,16.52
2023-05-19T16:32:40.122Z,16.57
2023-05-19T16:35:07.271Z,16.61
2023-05-19T16:37:34.707Z,16.65
2023-05-19T16:40:01.338Z,16.67
2023-05-19T16:42:28.321Z,16.64
2023-05-19T16:44:54.829Z,16.56
2023-05-19T16:47:21.299Z,16.57
2023-05-19T16:49:47.839Z,16.61
2023-05-19T16:52:14.274Z,16.70
2023-05-19T16:54:40.889Z,16.82
2023-05-19T16:57:07.395Z,16.95
2023-05-19T16:59:33.830Z,17.37
2023-05-19T17:02:00.300Z,18.35
2023-05-19T17:04:28.669Z,19.41
2023-05-19T17:06:57.069Z,20.24
2023-05-19T17:09:25.849Z,19.82
2023-05-19T17:11:53.589Z,19.21
2023-05-19T17:14:20.950Z,18.72
2023-05-19T17:16:47.827Z,18.25
2023-05-19T17:19:14.544Z,17.74
2023-05-19T17:21:41.517Z,17.48
2023-05-19T17:24:07.994Z,17.37
2023-05-19T17:26:34.516Z,17.30
2023-05-19T17:29:02.441Z,17.48
2023-05-19T17:31:30.419Z,17.56
2023-05-19T17:33:56.836Z,17.58
2023-05-19T17:36:23.355Z,17.75
2023-05-19T17:38:49.903Z,17.89
2023-05-19T17:41:17.065Z,18.22
2023-05-19T17:43:43.702Z,18.55
2023-05-19T17:46:10.379Z,18.05
2023-05-19T17:48:36.851Z,17.49
2023-05-19T17:51:05.111Z,17.16
2023-05-19T17:53:32.763Z,16.89
2023-05-19T17:56:02.508Z,16.70
2023-05-19T17:58:29.717Z,16.52
2023-05-19T18:00:56.771Z,16.37
2023-05-19T18:03:23.796Z,16.25
2023-05-19T18:05:51.092Z,16.16
2023-05-19T18:08:18.079Z,16.07
2023-05-19T18:10:46.075Z,16.00
2023-05-19T18:13:15.700Z,15.91
2023-05-19T18:15:42.780Z,15.84
2023-05-19T18:18:10.786Z,15.74
2023-05-19T18:20:44.119Z,15.69
2023-05-19T18:23:10.619Z,15.65
2023-05-19T18:25:37.363Z,15.60
2023-05-19T18:28:03.989Z,15.55
2023-05-19T18:30:30.549Z,15.50
2023-05-19T18:32:57.585Z,15.47
2023-05-19T18:35:24.096Z,15.40
2023-05-19T18:37:50.769Z,15.36
2023-05-19T18:40:18.453Z,15.27
2023-05-19T18:42:44.931Z,15.22
2023-05-19T18:45:11.771Z,15.17
2023-05-19T18:47:38.353Z,15.13
2023-05-19T18:50:05.885Z,15.08
2023-05-19T18:52:32.403Z,14.99
2023-05-19T18:55:00.779Z,14.92
2023-05-19T18:57:27.295Z,14.85
2023-05-19T18:59:53.879Z,14.77
2023-05-19T19:02:20.634Z,14.73
2023-05-19T19:04:47.172Z,14.69
2023-05-19T19:07:14.480Z,14.65
2023-05-19T19:09:43.518Z,14.62
2023-05-19T19:12:10.805Z,14.59
2023-05-19T19:14:37.348Z,14.59
2023-05-19T19:17:03.971Z,14.57
2023-05-19T19:19:33.673Z,14.57
2023-05-19T19:22:00.270Z,14.54
2023-05-19T19:24:28.484Z,14.53
2023-05-19T19:26:55.058Z,14.52
2023-05-19T19:29:21.885Z,14.53
2023-05-19T19:31:48.611Z,14.55
2023-05-19T19:34:15.138Z,14.56
2023-05-19T19:36:42.968Z,14.59
2023-05-19T19:39:09.503Z,14.61
2023-05-19T19:41:36.593Z,14.60
2023-05-19T19:44:03.269Z,14.61
2023-05-19T19:46:30.361Z,14.59
2023-05-19T19:49:00.325Z,14.57
2023-05-19T19:51:27.802Z,14.56
2023-05-19T19:53:55.143Z,14.52
2023-05-19T19:56:24.508Z,14.46
2023-05-19T19:58:51.205Z,14.44
2023-05-19T20:01:20.333Z,14.43
2023-05-19T20:03:47.319Z,14.41
2023-05-19T20:06:14.210Z,14.41
2023-05-19T20:08:40.730Z,14.39
2023-05-19T20:11:07.345Z,14.35
2023-05-19T20:13:33.835Z,14.35
2023-05-19T20:16:00.981Z,14.33
2023-05-19T20:18:29.630Z,14.29
2023-05-19T20:20:56.771Z,14.27
2023-05-19T20:23:23.243Z,14.28
2023-05-19T20:26:09.196Z,14.26
2023-05-19T20:28:36.388Z,14.23
2023-05-19T20:31:03.872Z,14.25
2023-05-19T20:33:31.660Z,14.25
2023-05-19T20:35:58.181Z,14.24
2023-05-19T20:38:24.693Z,14.22
2023-05-19T20:40:51.169Z,14.19
2023-05-19T20:43:17.702Z,14.21
2023-05-19T20:45:44.861Z,14.21
2023-05-19T20:48:11.873Z,14.22
2023-05-19T20:50:39.299Z,14.21
2023-05-19T20:53:07.287Z,14.21
2023-05-19T20:55:36.096Z,14.18
2023-05-19T20:58:02.753Z,14.17
2023-05-19T21:00:30.618Z,14.15
2023-05-19T21:02:57.486Z,14.11
2023-05-19T21:05:24.276Z,14.11
2023-05-19T21:07:50.846Z,14.10
2023-05-19T21:10:17.871Z,14.11
2023-05-19T21:12:44.420Z,14.10
2023-05-19T21:15:11.464Z,14.10
2023-05-19T21:17:38.108Z,14.06
2023-05-19T21:20:05.619Z,14.05
2023-05-19T21:22:32.138Z,14.04
2023-05-19T21:24:58.578Z,14.04
2023-05-19T21:27:25.141Z,14.06
2023-05-19T21:29:54.439Z,14.06
2023-05-19T21:32:21.408Z,14.05
2023-05-19T21:34:47.982Z,14.03
2023-05-19T21:37:16.302Z,14.01
2023-05-19T21:39:43.277Z,14.02
2023-05-19T21:42:09.728Z,14.02
2023-05-19T21:44:36.349Z,13.99
2023-05-19T21:47:02.958Z,13.94
2023-05-19T21:49:29.789Z,13.91
2023-05-19T21:51:56.391Z,13.83
2023-05-19T21:54:22.890Z,13.80
2023-05-19T21:56:49.687Z,13.76
2023-05-19T21:59:16.156Z,13.66
2023-05-19T22:01:42.707Z,13.55
2023-05-19T22:04:10.205Z,13.48
2023-05-19T22:06:37.001Z,13.43
2023-05-19T22:09:04.346Z,13.39
2023-05-19T22:11:30.859Z,13.36
2023-05-19T22:13:57.337Z,13.32
2023-05-19T22:16:23.989Z,13.24
2023-05-19T22:18:50.571Z,13.20
2023-05-19T22:21:17.076Z,13.15
2023-05-19T22:23:43.972Z,13.13
2023-05-19T22:26:10.527Z,13.08
2023-05-19T22:28:36.947Z,13.06
2023-05-19T22:31:03.464Z,12.97
2023-05-19T22:33:29.904Z,12.95
2023-05-19T22:35:56.386Z,12.92
2023-05-19T22:38:22.793Z,12.87
2023-05-19T22:40:49.954Z,12.84
2023-05-19T22:43:16.421Z,12.80
2023-05-19T22:45:43.026Z,12.75
2023-05-19T22:48:09.472Z,12.69
2023-05-19T22:50:36.021Z,12.69
2023-05-19T22:53:02.508Z,12.70
2023-05-19T22:55:29.104Z,12.71
2023-05-19T22:57:56.238Z,12.68
2023-05-19T23:00:22.908Z,12.64
2023-05-19T23:02:49.460Z,12.64
2023-05-19T23:05:16.285Z,12.64
2023-05-19T23:07:42.901Z,12.59
2023-05-19T23:10:09.716Z,12.55
2023-05-19T23:12:36.266Z,12.50
2023-05-19T23:15:03.611Z,12.48
2023-05-19T23:17:30.057Z,12.48
2023-05-19T23:19:56.590Z,12.48
2023-05-19T23:22:23.133Z,12.51
2023-05-19T23:24:49.591Z,12.54
2023-05-19T23:27:16.348Z,12.56
2023-05-19T23:29:47.084Z,12.59
2023-05-19T23:32:13.546Z,12.61
2023-05-19T23:34:39.967Z,12.61
2023-05-19T23:37:06.578Z,12.61
2023-05-19T23:39:33.115Z,12.60
2023-05-19T23:41:59.588Z,12.60
2023-05-19T23:44:27.229Z,12.54
2023-05-19T23:46:53.735Z,12.49
2023-05-19T23:49:20.385Z,12.44
2023-05-19T23:51:47.160Z,12.38
2023-05-19T23:54:13.609Z,12.31
2023-05-19T23:56:40.077Z,12.29
2023-05-19T23:59:06.587Z,12.26
